Date,TemperatureHighF,TemperatureAvgF,TemperatureLowF,DewpointHighF,DewpointAvgF,DewpointLowF,HumidityHigh,HumidityAvg,HumidityLow,PressureMaxIn,PressureMinIn,WindSpeedMaxMPH,WindSpeedAvgMPH,GustSpeedMaxMPH,PrecipitationSumIn
2013-1-1,45.9,39.5,35.4,26.8,21.3,15.4,64,48,38,29.96,29.84,16,2,16,0.00
2013-1-2,43.9,35.0,26.4,27.2,20.6,10.8,69,56,45,30.14,29.93,10,2,10,0.00
2013-1-3,43.0,30.2,19.9,23.3,15.5,10.9,69,55,45,30.16,30.08,10,1,10,0.00
2013-1-4,46.0,33.4,23.9,25.9,16.0,7.9,57,49,45,30.16,30.08,19,4,19,0.00
2013-1-5,47.7,36.6,24.1,26.8,18.3,8.4,54,47,44,30.31,30.11,13,2,13,0.00
2013-1-6,49.5,38.6,24.4,28.4,21.4,13.8,67,50,41,30.11,29.99,19,2,19,0.00
2013-1-7,45.3,36.0,22.8,23.6,18.0,11.2,63,48,41,30.40,30.11,13,3,13,0.00
2013-1-8,57.0,36.4,21.7,31.7,20.2,11.6,68,53,38,30.37,30.28,10,1,10,0.00
2013-1-9,61.2,41.6,23.7,39.7,26.6,13.3,71,56,40,30.37,30.22,16,2,16,0.00
2013-1-10,57.9,41.7,28.0,32.3,23.3,13.6,62,48,38,30.52,30.37,8,0,8,0.00
2013-1-11,47.5,42.7,34.0,36.7,29.1,21.4,75,59,43,30.40,30.05,10,2,10,0.00
2013-1-12,72.5,50.5,36.1,54.2,40.5,32.1,92,71,45,30.14,30.05,11,1,11,0.00
2013-1-13,68.5,55.6,42.6,60.5,45.2,38.9,97,70,47,30.05,29.96,13,2,13,0.00
2013-1-14,62.6,54.3,39.0,51.8,40.2,32.2,79,59,49,30.25,29.96,17,6,17,0.23
2013-1-15,39.2,37.1,34.7,35.7,32.6,29.6,94,84,75,30.28,30.08,13,4,13,0.76
2013-1-16,49.3,40.8,34.5,43.6,36.4,33.1,97,85,58,30.08,29.78,11,2,11,0.19
2013-1-17,47.5,41.1,34.2,35.6,27.6,22.8,73,59,47,30.08,29.96,13,3,13,0.06
2013-1-18,43.5,34.4,27.9,22.9,16.6,11.0,65,48,43,30.40,30.08,21,5,21,0.06
2013-1-19,56.7,41.3,28.2,32.6,21.7,12.4,53,46,40,30.34,29.96,13,4,13,0.06
2013-1-20,57.9,44.9,27.0,33.8,23.1,6.4,44,42,40,30.02,29.84,27,6,27,0.00
2013-1-21,49.8,33.7,22.1,25.7,13.7,2.5,54,44,36,30.02,29.78,31,6,31,0.00
2013-1-22,25.7,19.1,13.3,2.5,-3.4,-10.4,39,36,32,30.19,29.90,22,7,22,0.00
2013-1-23,30.7,20.6,8.8,8.1,-4.7,-14.4,51,32,29,30.22,29.99,16,4,16,0.00
2013-1-24,26.2,19.3,9.7,10.1,2.4,-8.8,65,48,39,30.43,29.96,21,6,24,0.00
2013-1-25,23.4,17.6,9.0,8.3,0.6,-9.4,53,47,40,30.43,29.96,14,3,14,0.00
2013-1-26,38.8,26.3,16.0,21.3,12.7,4.3,70,56,47,30.22,29.96,15,2,15,0.00
2013-1-27,44.1,32.1,14.4,21.3,15.1,5.3,75,50,40,30.49,30.34,11,3,11,0.00
2013-1-28,56.8,41.9,31.5,38.9,29.1,15.3,86,61,50,30.37,30.08,13,3,13,0.10
2013-1-29,75.4,56.8,37.6,51.3,42.3,31.7,92,60,41,30.11,29.93,14,2,14,0.00
2013-1-30,68.5,60.2,54.5,55.3,50.5,43.0,100,72,53,29.93,29.31,28,6,28,1.89
2013-1-31,54.9,38.1,28.6,54.9,21.9,11.9,100,52,47,29.84,29.25,31,10,31,0.06
2013-2-1,31.1,22.9,12.0,21.1,7.1,-3.0,72,50,47,30.28,29.75,31,7,31,0.02
2013-2-2,33.6,21.4,10.0,19.4,8.2,-4.9,76,57,49,30.28,29.93,17,3,17,0.02
2013-2-3,39.7,30.8,24.1,26.7,17.9,10.2,77,60,47,29.93,29.75,28,5,28,0.02
2013-2-4,38.5,29.8,19.0,23.8,13.3,3.9,66,50,47,30.02,29.84,22,4,22,0.02
2013-2-5,51.6,41.5,29.5,31.9,25.6,17.7,67,53,47,29.87,29.78,22,4,22,0.02
2013-2-6,51.6,38.6,26.2,31.0,23.5,12.9,75,55,43,30.25,29.87,13,2,13,0.00
2013-2-7,41.7,32.6,23.4,24.3,19.1,12.3,68,58,46,30.31,30.11,10,2,10,0.00
2013-2-8,46.2,35.9,31.6,30.4,23.5,15.5,82,61,45,30.11,29.75,25,5,25,0.02
2013-2-9,45.1,33.3,20.7,23.8,14.5,5.0,53,46,43,30.31,29.96,25,5,25,0.00
2013-2-10,45.9,31.1,15.4,24.5,14.6,3.8,67,51,43,30.37,30.14,15,2,15,0.01
2013-2-11,63.0,50.4,35.8,42.1,33.2,19.3,75,53,40,30.14,29.75,25,6,25,0.00
2013-2-12,62.2,48.3,38.5,37.0,26.4,18.5,44,42,39,29.93,29.81,19,5,19,0.00
2013-2-13,45.0,36.0,30.6,28.8,22.7,13.2,84,60,43,29.90,29.60,13,2,13,0.03
2013-2-14,50.0,36.6,24.8,33.1,23.7,13.2,88,62,42,29.99,29.75,11,2,11,0.00
2013-2-15,58.8,37.3,21.7,34.6,24.4,12.8,78,61,40,30.02,29.87,16,2,16,0.12
2013-2-16,36.9,32.1,24.3,28.4,18.3,6.9,84,57,46,29.96,29.81,22,4,22,0.00
2013-2-17,29.1,23.0,18.5,9.3,5.3,1.0,50,46,43,30.14,29.84,24,9,24,0.00
2013-2-18,47.5,29.5,9.5,25.5,11.4,-5.4,58,46,42,30.28,30.08,16,2,16,0.00
2013-2-19,52.2,39.8,29.1,33.4,22.8,11.9,76,51,42,30.08,29.69,26,7,26,0.02
2013-2-20,40.5,32.1,22.1,20.3,12.6,2.7,47,44,40,30.11,29.84,22,8,22,0.00
2013-2-21,42.4,29.2,14.9,20.4,9.9,-0.8,53,44,41,30.25,30.08,14,3,14,0.00
2013-2-22,36.0,31.5,27.0,19.5,15.2,8.9,64,51,43,30.28,30.11,13,3,13,0.03
2013-2-23,51.8,39.3,33.1,32.1,25.0,19.3,67,57,46,30.11,29.78,8,1,8,0.00
2013-2-24,53.2,41.0,31.8,42.2,26.7,13.9,92,59,42,30.08,29.78,20,5,20,0.00
2013-2-25,43.7,31.3,19.9,23.1,14.7,6.9,59,50,44,30.16,30.08,15,2,15,0.00
2013-2-26,38.1,31.2,21.9,36.9,24.4,9.4,97,76,58,30.14,29.60,15,3,15,0.64
2013-2-27,55.4,43.3,36.7,43.1,31.6,24.1,97,67,42,29.69,29.54,20,4,20,0.01
2013-2-28,43.3,38.2,32.2,25.3,21.0,17.6,57,50,44,29.72,29.63,18,5,18,0.00
2013-3-1,38.3,35.7,32.2,21.8,19.1,15.2,54,50,46,29.87,29.72,15,5,15,0.00
2013-3-2,35.8,31.4,27.7,19.4,14.8,10.6,56,50,46,29.87,29.78,15,4,15,0.00
2013-3-3,41.9,29.2,18.5,22.0,12.5,5.7,62,50,45,29.93,29.78,19,4,19,0.00
2013-3-4,48.7,30.2,13.1,27.3,13.2,1.3,66,49,43,30.02,29.90,15,3,15,0.00
2013-3-5,49.3,37.8,26.4,27.8,21.0,10.3,74,51,43,30.02,29.69,14,2,14,0.15
2013-3-6,38.1,34.1,30.4,31.4,26.3,20.5,100,75,53,30.02,29.60,21,6,22,0.42
2013-3-7,41.5,37.4,34.3,24.1,21.1,19.2,56,51,47,30.16,30.02,22,7,22,0.00
2013-3-8,43.2,36.3,30.6,24.3,20.0,16.1,58,51,44,30.28,30.14,25,7,25,0.00
2013-3-9,54.0,35.1,19.0,31.4,19.8,10.6,69,54,42,30.34,30.22,6,1,7,0.00
2013-3-10,62.6,44.5,23.9,37.6,26.3,15.2,72,51,36,30.25,30.14,14,2,14,0.00
2013-3-11,57.7,51.2,42.4,40.3,29.5,20.2,57,43,37,30.16,29.84,16,3,16,0.02
2013-3-12,61.3,51.4,32.5,52.2,37.5,19.0,92,61,42,29.96,29.72,19,5,19,0.68
2013-3-13,48.7,36.7,28.2,27.1,20.1,12.7,68,51,43,30.05,29.90,25,7,28,0.00
2013-3-14,47.8,35.5,25.5,26.4,16.7,8.6,48,46,43,30.14,30.02,22,7,22,0.00
2013-3-15,60.1,44.5,26.1,36.3,23.9,9.1,48,44,41,30.08,29.78,15,4,16,0.00
2013-3-16,61.5,47.9,36.0,46.3,34.4,20.7,75,60,45,29.84,29.60,16,2,16,0.23
2013-3-17,39.6,35.3,31.3,36.0,30.6,28.0,93,83,67,30.19,29.84,10,3,10,0.26
2013-3-18,34.9,32.1,30.4,29.5,27.5,24.4,91,83,70,30.19,29.84,5,0,5,0.40
2013-3-19,57.4,42.9,30.9,39.4,29.0,16.7,94,62,38,29.93,29.72,38,8,38,0.00
2013-3-20,53.1,40.8,29.7,26.7,17.3,7.0,42,38,36,29.99,29.72,27,7,27,0.00
2013-3-21,36.9,30.1,23.5,20.4,10.6,2.8,61,44,38,29.90,29.75,22,8,22,0.00
2013-3-22,49.5,34.6,21.2,24.1,12.6,0.7,43,40,37,29.96,29.84,16,4,16,0.00
2013-3-23,55.9,37.0,19.9,28.6,16.2,5.5,60,43,35,30.02,29.87,13,2,13,0.00
2013-3-24,40.1,32.0,27.7,23.1,16.8,10.7,73,54,39,29.93,29.57,10,1,10,0.17
2013-3-25,40.8,34.3,27.3,26.9,22.5,14.9,78,63,45,29.69,29.49,12,1,12,0.26
2013-3-26,43.3,37.3,31.6,22.7,18.6,16.0,58,47,38,30.02,29.69,16,4,16,0.00
2013-3-27,47.5,38.1,28.8,22.5,17.9,11.9,58,44,37,30.14,30.02,24,6,24,0.00
2013-3-28,47.8,39.4,32.7,22.9,17.7,12.7,48,41,37,30.19,30.11,24,6,24,0.00
2013-3-29,55.0,42.3,28.2,29.3,21.8,13.0,63,45,36,30.22,30.11,16,3,16,0.00
2013-3-30,60.1,43.1,24.8,32.4,22.3,11.4,61,45,35,30.19,30.05,13,2,13,0.00
2013-3-31,57.0,45.0,36.0,41.6,31.1,18.8,69,58,48,30.05,29.72,11,2,11,0.08
2013-4-1,61.3,46.5,34.2,38.7,27.8,16.4,67,49,39,29.96,29.78,33,6,33,0.00
2013-4-2,50.0,40.2,28.6,27.2,19.2,6.2,45,42,38,30.14,29.96,20,6,20,0.00
2013-4-3,52.7,38.0,20.5,26.5,16.2,5.2,52,41,36,30.31,30.14,22,5,22,0.00
2013-4-4,46.4,34.3,21.9,25.7,15.4,5.0,73,46,37,30.34,30.02,14,3,14,0.23
2013-4-5,63.7,46.2,33.4,38.9,31.2,23.1,83,58,40,30.02,29.84,19,3,19,0.08
2013-4-6,59.2,47.1,34.0,35.5,24.1,15.4,48,41,29,30.25,30.02,14,4,14,0.00
2013-4-7,69.1,55.6,41.5,35.5,25.9,16.1,40,32,27,30.16,29.96,19,5,19,0.00
2013-4-8,77.7,62.3,42.1,41.1,33.9,25.0,54,36,27,30.08,29.93,16,3,16,0.00
2013-4-9,82.2,69.3,50.9,44.0,37.7,30.3,50,32,26,30.11,29.96,19,3,19,0.00
2013-4-10,88.2,71.4,50.7,47.9,40.3,31.4,57,34,25,30.02,29.81,14,3,14,0.00
2013-4-11,85.3,70.3,52.0,47.9,41.3,34.4,54,36,25,29.90,29.72,16,3,16,0.00
2013-4-12,76.8,66.5,55.0,56.0,44.6,27.5,86,48,31,29.78,29.60,27,6,27,0.51
2013-4-13,70.5,56.4,40.3,38.5,29.8,20.0,56,37,31,29.96,29.78,22,5,22,0.00
2013-4-14,74.3,56.2,34.9,43.2,31.4,19.3,58,40,31,30.08,29.96,14,2,14,0.00
2013-4-15,61.7,55.5,50.5,47.1,40.3,32.2,76,58,41,30.22,30.05,10,1,10,0.25
2013-4-16,73.9,63.1,54.3,49.1,46.5,43.5,82,57,38,30.25,30.11,16,4,16,0.02
2013-4-17,81.9,67.7,56.5,58.5,49.4,45.5,82,55,31,30.19,30.08,11,2,11,0.03
2013-4-18,73.4,66.1,60.8,50.5,46.9,40.4,66,51,38,30.16,29.96,21,3,21,0.00
2013-4-19,73.9,65.3,50.9,57.8,46.6,27.7,74,51,41,29.96,29.60,21,6,21,0.25
2013-4-20,61.3,50.4,38.1,34.2,26.5,17.0,44,39,36,30.28,29.81,22,7,22,0.00
2013-4-21,56.7,45.3,31.6,30.7,22.8,13.9,51,41,37,30.52,30.28,14,4,14,0.00
2013-4-22,59.7,45.9,30.2,33.4,25.9,19.1,65,46,37,30.49,30.28,13,2,13,0.00
2013-4-23,67.5,52.2,38.7,40.1,31.9,21.5,60,47,37,30.31,30.05,11,3,11,0.00
2013-4-24,76.5,59.6,40.3,48.2,40.4,31.6,72,51,35,30.08,29.81,20,4,20,0.03
2013-4-25,64.6,53.3,40.6,36.7,29.6,21.5,48,40,35,30.28,30.02,16,5,16,0.00
2013-4-26,66.9,53.1,35.1,39.1,29.7,18.8,52,41,35,30.40,30.28,11,2,11,0.00
2013-4-27,71.6,57.6,39.6,43.8,35.0,26.3,62,44,35,30.34,30.22,13,2,13,0.00
2013-4-28,56.8,53.6,51.1,44.6,37.5,32.6,70,55,40,30.22,30.08,20,3,20,0.13
2013-4-29,67.1,57.7,50.2,46.1,41.8,37.4,73,56,43,30.11,29.96,12,2,12,0.00
2013-4-30,65.5,58.6,53.8,47.2,43.1,40.5,74,57,43,30.25,30.05,12,5,12,0.00
2013-5-1,71.8,60.3,51.6,45.2,40.2,32.8,75,50,34,30.34,30.22,14,4,14,0.00
2013-5-2,72.7,58.8,43.2,44.2,35.0,26.3,58,41,35,30.37,30.25,14,3,14,0.00
2013-5-3,66.4,53.7,37.6,40.9,34.4,28.1,70,50,37,30.34,30.22,17,4,17,0.00
2013-5-4,66.2,52.3,35.2,39.7,32.3,24.4,67,47,38,30.28,30.11,16,4,16,0.00
2013-5-5,64.9,53.5,35.8,38.8,32.1,24.4,64,45,35,30.16,30.08,17,4,17,0.00
2013-5-6,57.7,53.2,48.2,55.4,44.3,33.4,92,73,46,30.11,29.96,16,6,16,0.50
2013-5-7,64.4,56.8,51.6,55.8,50.6,41.7,92,80,54,29.96,29.87,44,5,44,0.89
2013-5-8,62.4,54.2,47.5,51.6,47.1,40.6,94,78,56,29.99,29.90,10,1,10,0.15
2013-5-9,77.4,60.7,44.8,61.6,47.6,42.6,98,67,40,30.02,29.93,19,2,19,0.01
2013-5-10,82.9,66.0,47.8,58.2,50.1,41.2,90,59,39,30.05,29.87,21,3,21,0.20
2013-5-11,77.5,66.2,58.6,60.1,52.0,43.2,91,63,43,29.90,29.72,18,3,18,0.00
2013-5-12,63.7,56.3,42.6,45.2,35.9,23.8,61,47,41,30.02,29.78,22,6,22,0.00
2013-5-13,60.6,47.6,35.1,37.3,29.2,22.0,69,49,42,30.14,30.02,24,4,24,0.00
2013-5-14,68.7,52.1,29.8,44.6,34.0,22.3,76,52,40,30.19,29.96,13,2,13,0.00
2013-5-15,92.7,70.4,47.3,62.6,46.9,34.6,65,45,30,29.99,29.75,23,4,23,0.00
2013-5-16,85.8,73.7,62.6,51.7,45.8,37.9,55,38,31,29.99,29.84,22,3,22,0.00
2013-5-17,81.9,68.0,53.4,57.6,48.3,43.1,81,52,32,30.11,29.96,12,2,12,0.07
2013-5-18,72.7,64.9,61.7,59.2,52.7,48.2,86,66,45,30.16,30.11,13,2,13,0.03
2013-5-19,68.5,63.9,60.3,57.0,53.6,48.9,82,69,57,30.16,30.08,10,2,10,0.01
2013-5-20,82.2,70.1,61.5,65.6,56.8,49.7,92,65,43,30.11,29.99,16,2,16,0.01
2013-5-21,87.6,72.9,57.0,64.3,57.3,53.5,92,62,39,30.02,29.90,12,2,12,0.00
2013-5-22,90.0,74.3,60.4,63.7,57.1,49.3,87,58,35,29.96,29.84,26,3,26,0.10
2013-5-23,82.4,69.8,61.2,62.3,56.7,46.9,94,67,40,29.93,29.75,15,2,15,0.18
2013-5-24,62.8,57.0,46.0,57.0,40.4,25.5,92,56,40,30.16,29.81,27,8,27,0.01
2013-5-25,68.2,52.8,36.0,41.6,31.6,21.0,59,45,38,30.22,30.11,22,5,22,0.00
2013-5-26,75.4,57.8,38.7,48.4,36.9,27.5,71,47,36,30.22,30.11,19,3,19,0.00
2013-5-27,66.0,55.5,37.4,42.6,37.0,26.5,73,51,41,30.28,30.16,7,1,7,0.00
2013-5-28,87.6,69.3,51.1,58.2,50.1,40.1,81,53,36,30.19,30.05,15,2,15,0.00
2013-5-29,89.8,76.8,60.8,59.6,54.0,48.6,70,47,35,30.16,30.08,16,3,16,0.00
2013-5-30,92.7,77.6,60.6,60.9,54.7,48.5,73,47,35,30.22,30.14,15,2,15,0.00
2013-5-31,89.1,75.1,55.8,59.6,53.8,48.6,80,50,36,30.16,30.05,19,2,19,0.00
2013-6-1,90.3,77.7,64.2,60.5,55.2,50.3,68,47,35,30.08,29.96,16,3,16,0.00
2013-6-2,84.0,74.6,68.4,58.5,53.3,49.2,62,48,40,29.96,29.84,16,4,16,0.00
2013-6-3,83.7,72.5,64.2,58.7,52.9,45.9,71,51,37,29.99,29.84,16,2,16,0.00
2013-6-4,77.4,66.1,52.9,49.8,44.5,38.2,69,46,38,30.14,29.99,16,3,16,0.00
2013-6-5,79.9,69.3,57.0,53.0,47.8,41.1,61,47,38,30.16,30.02,14,3,14,0.00
2013-6-6,67.5,62.9,60.3,62.2,53.2,43.5,96,73,47,30.05,29.84,11,2,11,1.98
2013-6-7,69.1,65.7,63.0,65.4,60.8,55.2,99,85,67,29.84,29.66,14,3,14,0.24
2013-6-8,81.5,68.5,57.2,60.1,54.6,50.6,91,64,39,30.11,29.81,13,2,13,0.06
2013-6-9,80.2,69.3,58.6,61.4,56.5,52.3,89,65,46,30.19,30.08,10,2,10,0.13
2013-6-10,82.0,69.4,64.2,69.4,63.7,54.2,99,83,47,30.11,29.81,18,2,18,1.25
2013-6-11,82.4,72.1,61.9,62.8,56.3,49.6,95,61,41,29.93,29.84,19,4,19,0.00
2013-6-12,90.9,76.9,61.2,64.5,58.5,50.4,81,55,40,29.93,29.84,16,3,16,0.00
2013-6-13,80.2,71.1,63.5,66.1,57.0,45.7,89,62,47,29.87,29.57,20,4,20,0.04
2013-6-14,77.2,67.6,57.7,52.5,47.2,42.2,61,48,40,30.05,29.72,18,5,18,0.00
2013-6-15,84.0,69.1,50.5,56.5,50.0,42.5,78,53,39,30.11,30.02,11,2,11,0.00
2013-6-16,84.9,71.3,56.7,60.2,54.6,46.9,80,57,41,30.05,29.93,14,3,14,0.01
2013-6-17,87.3,73.8,65.3,62.1,57.8,53.4,76,59,41,29.99,29.93,14,3,14,0.09
2013-6-18,72.7,67.0,61.2,66.0,58.3,51.5,91,74,50,29.96,29.84,16,1,16,0.25
2013-6-19,76.8,67.1,57.4,61.9,54.9,52.0,93,67,47,30.14,29.93,13,2,13,0.00
2013-6-20,79.2,70.7,62.4,63.8,56.3,52.8,89,62,45,30.25,30.14,18,3,18,0.00
2013-6-21,84.0,72.9,57.7,59.5,53.3,46.7,73,51,41,30.28,30.19,11,2,11,0.00
2013-6-22,86.9,73.3,57.7,61.1,55.8,50.1,87,57,38,30.25,30.14,13,2,13,0.00
2013-6-23,86.9,75.0,65.1,65.7,59.5,52.7,91,61,41,30.19,30.11,13,3,13,0.26
2013-6-24,91.4,73.6,62.6,68.9,59.9,51.5,93,65,40,30.19,30.08,21,2,21,0.82
2013-6-25,89.6,76.1,63.3,67.5,61.9,58.0,94,64,43,30.11,29.96,13,2,13,0.00
2013-6-26,89.2,74.7,68.0,68.3,62.6,53.4,89,68,43,29.96,29.84,16,6,16,0.57
2013-6-27,84.0,74.4,65.3,68.8,61.2,56.3,94,66,45,29.90,29.69,10,10,10,0.00
2013-6-28,90.3,77.7,66.2,63.8,57.6,49.8,72,51,37,29.72,29.52,10,10,10,0.00
2013-6-29,85.5,74.3,59.4,62.7,56.0,50.7,80,54,38,29.73,29.57,10,8,10,0.02
2013-6-30,86.4,74.3,64.9,72.1,62.1,56.5,95,69,44,29.88,29.73,15,3,15,0.23
2013-7-1,82.9,74.0,67.6,66.1,60.4,57.6,89,64,45,29.96,29.88,16,2,16,0.03
2013-7-2,79.2,72.5,69.4,67.9,63.0,59.3,92,73,55,30.17,29.96,13,2,13,0.14
2013-7-3,80.1,73.1,69.1,69.2,63.9,60.6,92,74,53,30.26,30.14,8,2,10,0.11
2013-7-4,84.9,75.8,67.6,70.8,63.5,59.4,95,68,46,30.26,30.17,16,3,16,0.01
2013-7-5,87.6,77.5,67.5,68.1,62.1,59.3,91,61,43,30.26,30.17,16,4,16,0.01
2013-7-6,88.9,78.8,66.9,71.6,61.4,56.8,91,57,40,30.23,30.11,14,3,14,0.00
2013-7-7,88.2,75.1,66.9,69.0,61.4,57.9,86,64,44,30.17,30.02,30,2,30,0.24
2013-7-8,85.8,74.5,63.7,67.5,60.0,56.3,91,63,43,30.17,30.08,14,2,14,0.01
2013-7-9,84.0,74.8,67.3,67.6,62.3,57.9,89,67,46,30.14,30.05,10,1,10,0.00
2013-7-10,88.0,75.3,70.2,69.6,64.4,59.4,89,70,45,30.08,29.93,10,2,10,0.00
2013-7-11,84.0,74.8,64.9,71.5,62.6,56.8,94,68,44,29.96,29.91,15,3,15,1.36
2013-7-12,73.2,66.8,63.5,66.0,59.0,52.9,100,77,51,30.08,29.96,18,5,18,0.98
2013-7-13,82.8,72.6,62.8,69.1,61.6,56.9,96,71,46,30.26,30.08,10,1,10,0.02
2013-7-14,86.4,76.3,65.5,71.4,62.0,57.9,95,64,43,30.35,30.26,13,2,13,0.00
2013-7-15,90.9,78.7,64.6,69.0,63.2,60.6,95,63,40,30.35,30.26,10,1,10,0.00
2013-7-16,91.4,79.9,67.1,72.1,64.3,59.4,94,62,42,30.32,30.23,19,2,19,0.00
2013-7-17,90.0,80.3,69.4,73.6,65.3,62.5,93,63,42,30.29,30.17,13,2,13,0.00
2013-7-18,94.3,81.7,70.2,75.1,67.1,63.0,95,65,41,30.20,30.08,8,1,8,0.00
2013-7-19,93.9,78.5,70.5,75.8,65.9,57.4,96,68,42,30.08,29.96,19,2,19,0.01
2013-7-20,93.4,78.5,69.3,69.3,63.4,56.7,94,63,39,29.96,29.88,13,3,13,0.01
2013-7-21,89.4,74.3,64.6,68.7,61.7,56.8,91,67,43,30.02,29.93,22,2,22,0.64
2013-7-22,88.0,75.9,68.2,72.1,64.7,59.5,99,71,44,29.99,29.82,16,2,16,0.01
2013-7-23,88.7,77.2,67.6,72.0,62.4,56.6,97,64,40,29.82,29.73,13,2,13,0.00
2013-7-24,83.7,73.4,66.0,62.6,56.7,48.1,79,57,44,29.96,29.76,16,4,16,0.00
2013-7-25,78.4,69.1,60.4,55.0,49.4,45.2,65,50,43,30.08,29.93,14,4,14,0.00
2013-7-26,83.1,69.9,54.5,61.2,53.8,48.5,91,59,39,30.14,30.02,12,2,12,0.00
2013-7-27,73.9,68.7,61.5,65.7,59.1,55.0,92,72,58,30.05,29.93,12,2,12,0.31
2013-7-28,85.3,73.8,65.7,65.3,58.3,52.0,89,61,41,30.02,29.91,13,2,13,0.00
2013-7-29,80.2,69.2,54.5,54.9,50.9,48.2,84,54,40,30.20,30.02,10,2,10,0.00
2013-7-30,81.5,69.2,53.4,57.0,52.7,48.6,88,58,39,30.26,30.17,10,2,10,0.00
2013-7-31,81.9,67.7,61.5,64.2,58.7,54.8,91,74,45,30.17,30.02,16,1,16,0.23
2013-8-1,83.1,71.8,64.2,67.4,61.1,56.7,98,72,45,30.02,29.88,14,2,14,0.12
2013-8-2,84.9,73.0,58.6,63.9,56.3,51.3,90,58,39,30.02,29.93,13,2,13,0.00
2013-8-3,82.8,69.3,61.5,59.0,55.4,50.6,83,63,44,30.02,29.96,8,1,8,0.01
2013-8-4,82.2,69.6,57.9,63.1,52.7,44.8,90,58,39,30.08,29.96,19,3,19,0.00
2013-8-5,79.3,67.1,51.6,54.3,50.4,44.6,83,57,40,30.14,30.02,11,2,12,0.00
2013-8-6,82.0,71.2,63.5,63.6,57.4,53.2,90,63,45,30.05,29.99,12,2,12,0.02
2013-8-7,82.9,73.7,67.1,66.7,61.5,58.4,93,67,47,30.08,30.02,16,3,16,0.00
2013-8-8,82.9,74.8,69.1,66.6,63.3,60.4,89,69,48,30.05,29.99,12,2,12,0.00
2013-8-9,91.4,79.5,71.1,69.4,63.3,57.0,91,60,42,30.02,29.93,19,4,19,0.00
2013-8-10,84.6,74.7,68.5,72.5,63.0,58.8,93,69,46,30.11,30.02,8,1,8,0.25
2013-8-11,85.3,74.3,67.6,68.8,65.0,59.1,95,75,46,30.14,30.02,10,2,10,0.29
2013-8-12,88.5,75.0,65.7,73.6,64.0,57.8,100,73,43,30.08,29.96,14,1,14,0.13
2013-8-13,84.9,74.2,68.7,69.3,61.0,53.6,99,67,44,29.96,29.82,11,2,11,0.08
2013-8-14,73.6,65.9,54.3,54.7,46.1,41.2,63,49,41,30.14,29.88,16,5,16,0.00
2013-8-15,75.9,62.1,47.3,50.9,45.7,41.0,81,57,40,30.20,30.11,10,2,10,0.00
2013-8-16,78.8,63.8,48.4,56.1,48.5,44.4,88,60,40,30.20,30.14,11,2,11,0.00
2013-8-17,77.9,64.9,50.0,56.7,50.3,46.4,89,62,43,30.26,30.20,13,3,13,0.00
2013-8-18,69.6,63.8,59.4,60.5,56.1,52.0,96,77,58,30.26,30.20,11,3,11,0.60
2013-8-19,80.2,69.8,62.6,66.4,60.7,58.0,97,75,48,30.20,30.08,8,1,8,0.03
2013-8-20,85.1,73.7,63.7,68.0,61.6,58.0,100,69,43,30.20,30.11,10,2,10,0.00
2013-8-21,86.7,71.8,63.9,68.2,62.5,53.5,97,76,44,30.23,30.11,12,2,12,0.78
2013-8-22,84.9,72.4,62.2,68.1,60.9,55.8,100,70,44,30.14,30.02,18,2,18,0.14
2013-8-23,73.8,66.9,60.6,69.7,61.2,51.7,100,83,58,30.14,29.99,15,2,15,0.64
2013-8-24,79.7,64.9,52.2,64.7,53.6,48.7,96,70,42,30.35,30.17,11,2,11,0.18
2013-8-25,80.8,66.5,52.3,60.4,52.7,48.9,94,64,39,30.40,30.29,10,2,10,0.18
2013-8-26,83.8,69.5,54.5,61.2,55.3,51.1,93,64,41,30.32,30.08,10,1,10,0.18
2013-8-27,89.4,74.0,61.7,64.3,60.3,54.9,90,65,43,30.08,29.96,13,2,13,0.18
2013-8-28,78.1,72.0,68.4,69.0,64.1,58.8,95,77,63,30.02,29.84,13,2,13,0.37
2013-8-29,82.0,73.8,65.7,70.7,63.0,56.9,97,71,45,30.05,29.87,13,3,13,0.18
2013-8-30,85.8,72.9,62.1,71.9,61.2,58.7,99,70,44,30.08,29.93,14,2,14,0.18
2013-8-31,89.2,73.7,66.0,70.4,62.1,57.1,93,69,43,29.96,29.87,11,2,11,0.03
2013-9-1,87.1,71.9,63.3,72.5,64.3,57.4,100,80,44,29.90,29.81,11,1,11,0.03
2013-9-2,88.3,75.9,66.2,76.4,64.6,60.3,100,72,43,29.87,29.78,11,2,11,0.03
2013-9-3,85.6,73.5,61.2,65.1,56.9,48.3,85,58,38,30.02,29.82,13,2,13,0.00
2013-9-4,79.2,66.5,52.9,56.7,52.0,47.5,86,62,43,30.11,30.02,11,1,11,0.00
2013-9-5,85.8,67.0,49.1,59.5,51.9,46.5,92,62,38,30.14,30.05,16,2,16,0.00
2013-9-6,74.8,63.5,51.4,52.1,48.0,42.7,82,59,43,30.26,30.14,14,2,14,0.00
2013-9-7,81.9,65.4,49.8,57.1,51.7,47.4,94,65,39,30.17,29.96,10,1,10,0.00
2013-9-8,89.8,72.6,57.7,63.8,57.2,50.4,90,62,40,30.05,29.91,13,2,13,0.00
2013-9-9,79.9,70.6,65.1,59.5,55.2,49.4,72,59,46,30.20,30.05,14,3,14,0.00
2013-9-10,91.2,76.4,64.6,65.6,61.9,57.0,91,64,42,30.20,30.14,10,2,10,0.00
2013-9-11,91.6,77.2,65.7,72.1,63.4,59.2,95,66,42,30.20,30.05,13,2,13,0.00
2013-9-12,92.3,74.2,64.4,71.3,61.8,55.0,95,68,39,30.08,29.82,21,2,21,0.18
2013-9-13,75.0,66.2,59.2,60.6,50.0,41.1,93,58,41,29.96,29.79,22,5,22,0.00
2013-9-14,68.0,56.9,47.1,45.9,40.0,35.1,73,54,45,30.17,29.96,13,3,13,0.00
2013-9-15,77.5,59.7,40.6,53.1,46.0,37.1,90,63,43,30.23,30.08,15,2,15,0.00
2013-9-16,67.5,58.4,48.7,61.2,49.0,42.4,98,72,51,30.26,30.08,14,2,16,0.01
2013-9-17,67.8,56.8,47.5,53.2,44.6,38.8,96,66,45,30.38,30.26,13,2,13,0.00
2013-9-18,72.7,55.4,38.5,51.6,42.8,34.1,90,65,44,30.32,30.17,11,2,11,0.00
2013-9-19,80.4,64.5,52.7,56.7,49.9,43.1,80,61,42,30.20,30.08,14,2,14,0.00
2013-9-20,79.3,66.6,55.4,60.4,55.6,50.9,95,70,46,30.08,29.96,14,3,14,0.00
2013-9-21,70.0,64.5,58.6,64.1,58.6,54.9,97,82,60,29.96,29.70,18,3,18,0.60
2013-9-22,71.2,61.2,50.7,62.8,49.9,38.2,100,71,44,29.96,29.79,14,3,14,0.01
2013-9-23,66.9,54.7,42.8,49.5,40.6,36.6,87,61,45,30.11,29.96,13,2,13,0.00
2013-9-24,73.4,59.2,49.6,51.3,46.1,41.7,82,64,46,30.11,29.96,10,1,10,0.00
2013-9-25,75.2,60.4,47.8,59.0,48.5,44.7,95,68,40,29.99,29.88,10,1,10,0.00
2013-9-26,75.6,61.7,49.3,60.3,48.3,39.8,93,64,40,30.08,29.93,11,2,11,0.01
2013-9-27,75.4,59.1,43.2,53.9,46.1,39.8,92,65,43,30.23,30.08,13,2,13,0.00
2013-9-28,67.1,59.1,49.1,56.9,47.2,44.1,92,66,48,30.29,30.20,11,2,11,0.00
2013-9-29,73.9,60.5,49.8,55.1,46.4,40.2,88,62,41,30.23,30.05,10,2,10,0.00
2013-9-30,77.5,60.7,44.8,54.6,47.3,40.6,94,64,40,30.08,29.99,8,2,8,0.00
2013-10-1,82.4,66.1,55.2,57.5,51.4,45.3,89,62,39,30.11,30.02,11,2,11,0.00
2013-10-2,83.3,63.7,47.8,60.2,50.4,44.5,93,65,41,30.14,30.05,7,0,10,0.00
2013-10-3,83.8,65.4,52.2,60.7,53.2,48.1,94,68,41,30.17,30.05,13,1,13,0.00
2013-10-4,85.5,66.6,52.3,64.2,54.8,50.6,97,69,41,30.14,30.05,10,1,10,0.00
2013-10-5,87.4,69.5,55.8,67.2,56.9,52.7,97,68,41,30.14,30.02,11,1,11,0.00
2013-10-6,85.6,70.0,55.2,64.2,55.9,52.8,96,64,41,30.05,29.90,19,3,19,0.00
2013-10-7,71.6,63.8,48.0,66.0,52.9,35.6,100,70,44,30.08,29.78,16,4,16,1.62
2013-10-8,65.8,53.4,41.5,47.0,39.6,35.4,90,62,43,30.26,30.08,16,3,16,0.00
2013-10-9,58.8,52.2,45.9,44.9,40.4,38.1,82,65,50,30.32,30.23,16,4,16,0.08
2013-10-10,57.6,53.2,49.3,53.1,48.7,43.8,96,85,72,30.23,30.02,14,5,14,0.36
2013-10-11,61.3,57.4,54.3,55.0,50.0,46.6,90,77,61,30.02,29.96,14,5,14,0.00
2013-10-12,63.9,60.6,57.7,59.6,56.1,52.3,100,86,66,30.17,29.99,16,6,16,0.00
2013-10-13,61.3,58.2,56.3,57.1,54.4,50.4,99,88,69,30.29,30.17,14,5,14,0.17
2013-10-14,65.8,59.0,53.1,57.7,52.9,45.4,100,82,58,30.32,30.23,10,2,10,0.04
2013-10-15,68.4,58.1,50.4,58.0,49.2,44.8,98,75,48,30.23,30.08,7,0,7,0.00
2013-10-16,70.3,58.6,46.6,60.2,49.6,45.0,97,75,49,30.11,29.93,11,1,11,0.00
2013-10-17,70.2,62.8,56.5,57.8,52.6,42.4,86,70,57,29.93,29.75,13,2,13,0.00
2013-10-18,65.8,54.3,42.4,43.0,37.1,30.3,74,53,43,30.02,29.87,16,2,16,0.00
2013-10-19,63.1,51.0,39.4,48.9,41.5,33.6,94,72,51,29.99,29.78,11,2,11,0.00
2013-10-20,61.9,48.8,34.5,39.8,31.7,23.1,74,52,41,30.08,29.90,15,3,15,0.00
2013-10-21,67.8,48.9,31.3,45.2,35.9,26.9,89,64,42,30.14,29.93,15,2,15,0.00
2013-10-22,68.4,52.9,39.9,48.6,38.8,31.1,90,61,42,29.93,29.81,16,3,16,0.00
2013-10-23,58.8,47.3,38.7,38.5,31.3,25.6,66,54,44,29.93,29.67,32,4,32,0.00
2013-10-24,49.5,41.9,33.4,30.5,24.8,18.3,61,51,44,30.14,29.93,16,5,16,0.00
2013-10-25,52.0,36.5,23.4,30.4,21.9,15.0,75,56,43,30.32,30.14,16,2,16,0.00
2013-10-26,55.8,40.1,21.4,33.1,24.7,14.3,78,56,42,30.29,29.93,14,3,16,0.00
2013-10-27,63.0,46.7,34.3,40.2,29.8,21.5,66,52,41,30.11,29.96,10,2,14,0.00
2013-10-28,64.2,44.9,29.3,42.2,31.7,23.0,81,62,43,30.26,30.11,11,1,11,0.00
2013-10-29,65.3,49.0,33.8,44.5,36.5,28.2,84,64,45,30.35,30.26,8,1,8,0.00
2013-10-30,69.1,57.0,47.8,50.8,45.6,38.2,81,66,49,30.29,30.11,8,1,8,0.06
2013-10-31,70.3,60.1,49.5,60.1,49.2,42.9,96,70,48,30.17,29.75,19,3,19,0.00
2013-11-1,74.3,64.2,47.8,53.4,47.7,37.1,73,56,41,29.75,29.61,24,5,24,0.01
2013-11-2,67.5,51.1,37.4,48.5,35.1,20.9,88,57,30,29.93,29.70,19,4,19,0.00
2013-11-3,56.3,43.9,29.1,29.5,21.4,11.9,65,42,30,30.37,29.93,18,4,18,0.00
2013-11-4,47.3,36.6,27.1,21.0,16.0,11.1,57,43,33,30.55,30.37,10,2,10,0.00
2013-11-5,54.7,43.1,28.8,34.9,25.1,16.6,64,50,33,30.55,30.40,10,1,10,0.00
2013-11-6,68.7,56.2,47.5,43.5,38.8,34.0,68,53,40,30.40,30.05,19,3,19,0.00
2013-11-7,60.8,50.5,39.0,48.4,34.6,17.2,82,56,39,30.11,29.90,24,5,24,0.02
2013-11-8,50.7,40.4,26.8,26.9,19.4,12.1,58,43,39,30.29,30.11,21,4,21,0.00
2013-11-9,57.6,39.8,21.7,31.5,21.5,12.5,70,49,37,30.29,30.05,17,2,17,0.00
2013-11-10,64.9,45.2,28.6,36.7,24.6,13.1,69,45,35,30.23,29.99,18,5,20,0.00
2013-11-11,61.9,44.1,26.1,34.7,24.1,13.0,64,46,36,30.29,29.99,13,3,13,0.00
2013-11-12,51.1,37.0,24.1,28.4,16.6,5.5,49,43,39,30.37,29.96,23,7,23,0.00
2013-11-13,42.6,31.2,21.6,20.4,11.8,4.5,52,44,40,30.46,30.35,19,4,19,0.00
2013-11-14,60.4,38.2,18.0,34.1,17.8,3.7,56,44,37,30.35,30.20,13,2,13,0.00
2013-11-15,64.4,43.9,22.3,36.7,23.6,8.6,61,46,35,30.26,30.14,13,2,13,0.03
2013-11-16,57.9,48.0,39.2,50.7,40.6,31.7,90,76,60,30.26,30.20,11,1,11,0.00
2013-11-17,64.0,57.2,51.6,55.5,47.7,44.2,88,72,50,30.20,29.75,13,4,13,0.06
2013-11-18,66.0,56.1,44.4,52.6,33.4,21.5,73,43,35,29.96,29.72,25,7,25,0.01
2013-11-19,46.9,39.5,29.5,24.4,19.3,13.4,51,44,39,30.32,29.96,19,6,19,0.00
2013-11-20,47.1,33.4,25.0,23.5,16.8,11.1,68,51,39,30.46,30.32,11,2,11,0.00
2013-11-21,49.6,41.0,26.4,32.7,26.2,13.8,62,56,47,30.49,30.35,10,2,10,0.00
2013-11-22,67.1,56.2,46.2,45.4,39.8,32.4,65,54,43,30.35,30.02,14,3,14,0.00
2013-11-23,57.0,44.4,26.8,37.4,24.7,11.2,61,46,38,30.20,30.02,24,8,24,0.00
2013-11-24,28.6,22.8,13.3,11.9,3.7,-2.8,51,43,40,30.46,30.20,22,7,22,0.00
2013-11-25,39.0,25.5,11.1,17.3,7.2,-4.3,58,46,40,30.46,30.26,12,3,12,0.00
2013-11-26,38.8,34.6,31.8,35.8,24.6,13.0,97,69,42,30.29,29.63,16,3,16,2.80
2013-11-27,37.8,33.5,24.1,36.1,23.0,6.8,95,67,46,30.04,29.57,24,6,24,0.02
2013-11-28,37.4,26.1,16.2,15.9,9.4,2.6,59,49,41,30.48,30.04,14,2,14,0.00
2013-11-29,43.2,28.7,18.3,22.2,14.0,8.9,69,54,41,30.71,30.48,10,1,10,0.00
2013-11-30,39.2,27.1,15.3,20.0,13.1,6.6,72,56,43,30.71,30.39,13,2,13,0.00
2013-12-1,55.8,37.0,20.3,30.0,19.9,8.4,69,51,37,30.39,30.06,10,2,10,0.00
2013-12-2,54.0,44.5,38.5,33.0,27.9,24.2,63,52,40,30.06,29.92,8,0,8,0.00
2013-12-3,58.1,43.3,34.9,36.3,29.0,23.6,75,58,42,30.06,29.92,8,1,8,0.00
2013-12-4,63.5,49.4,35.8,41.3,35.9,25.9,73,61,44,30.12,30.03,10,1,10,0.00
2013-12-5,69.3,58.9,47.3,51.7,46.0,40.5,86,63,44,30.12,30.03,14,3,14,0.00
2013-12-6,64.0,50.2,38.1,58.9,45.4,34.9,94,84,60,30.21,29.98,20,5,20,1.03
2013-12-7,40.1,35.8,27.7,36.1,26.2,16.4,93,69,57,30.57,30.18,16,6,16,0.03
2013-12-8,31.8,27.9,25.9,29.0,21.2,14.9,89,76,59,30.57,30.30,14,3,14,0.73
2013-12-9,53.8,37.8,31.6,39.1,31.5,23.9,100,80,53,30.33,30.06,10,1,10,0.28
2013-12-10,39.9,32.7,21.9,34.2,21.5,3.4,85,65,42,30.27,30.03,16,2,16,0.37
2013-12-11,43.0,31.3,20.8,18.8,11.1,2.9,51,43,37,30.42,30.27,14,3,14,0.00
2013-12-12,36.5,28.9,22.8,13.9,7.5,1.6,43,40,37,30.45,30.30,16,6,16,0.00
2013-12-13,45.5,32.9,22.1,20.6,11.3,2.5,49,40,37,30.36,30.27,16,4,16,0.00
2013-12-14,33.8,32.3,30.6,29.5,23.5,13.9,87,70,49,30.33,29.83,7,1,7,0.26
2013-12-15,45.0,36.2,30.6,36.0,22.7,13.0,95,61,39,30.01,29.74,20,4,20,0.00
2013-12-16,41.7,35.6,31.8,20.9,18.4,16.4,58,49,43,30.18,30.01,8,2,11,0.00
2013-12-17,52.5,37.4,23.7,30.4,21.7,14.9,71,54,40,30.15,29.94,20,4,20,0.00
2013-12-18,44.6,35.2,27.5,20.0,14.2,9.0,47,42,37,30.24,30.03,21,5,21,0.00
2013-12-19,65.5,43.9,25.7,34.9,20.7,6.8,49,40,32,30.24,30.12,19,2,19,0.00
2013-12-20,63.9,46.8,29.5,34.1,25.2,16.6,62,44,33,30.15,30.06,13,2,13,0.00
2013-12-21,68.7,59.7,46.9,48.4,37.7,23.8,53,44,37,30.09,29.94,19,4,19,0.00
2013-12-22,68.7,62.4,58.1,55.6,48.5,44.4,85,61,50,30.09,29.91,19,5,19,0.35
2013-12-23,60.6,50.8,33.8,55.2,39.4,16.2,94,67,44,30.27,30.00,16,4,16,0.90
2013-12-24,39.7,28.7,19.6,22.0,11.5,0.1,66,49,38,30.47,30.24,25,5,25,0.00
2013-12-25,33.4,23.4,12.7,11.7,4.5,-2.6,59,44,40,30.53,30.32,12,2,12,0.00
2013-12-26,47.7,31.7,21.4,22.0,11.1,2.4,52,42,36,30.38,30.24,19,3,19,0.00
2013-12-27,52.5,31.9,18.1,25.7,13.8,6.6,65,48,35,30.44,30.32,13,2,13,0.00
2013-12-28,57.0,36.8,19.4,29.0,18.0,8.7,67,48,34,30.38,30.18,13,2,13,0.00
2013-12-29,51.8,42.3,37.4,48.2,33.0,20.0,99,71,46,30.18,29.67,16,3,16,1.46
2013-12-30,43.3,37.9,28.0,32.2,24.3,16.5,73,58,48,30.18,29.88,21,3,21,0.41
2013-12-31,44.2,33.9,27.1,23.2,17.9,9.4,70,52,43,30.32,30.15,30,4,30,0.00
2014-1-1,52.9,36.0,24.6,29.8,18.4,10.4,63,49,41,30.38,30.12,16,2,16,0.00
2014-1-2,36.3,30.6,25.9,26.5,21.2,14.0,86,69,51,30.12,29.67,19,2,19,0.11